Aviation Digital Data Service (ADDS)

Output produced by METARs form (1104 UTC 13 December 2017)
found at http://www.aviationweather.gov/adds/metars/
 
LZKZ 131100Z 02009KT 9999 FEW030 04/M00 Q1017 NOSIG
TAF LZKZ 131100Z 1312/1412 01009KT 9999 FEW035 SCT080 
     TEMPO 1315/1319 VRB02KT SCT040 
     BECMG 1319/1321 20006KT 
     BECMG 1401/1403 22015KT SCT008 OVC027 
     TEMPO 1403/1409 21015G25KT 5000 -SN BKN004 OVC020 
     BECMG 1409/1411 7000 -RASN
       
LZIB 131100Z 29007KT 9999 FEW030 05/M02 Q1019 NOSIG
TAF LZIB 131100Z 1312/1412 28005KT CAVOK 
     BECMG 1316/1318 18010KT 
     TEMPO 1321/1405 15014KT 
     BECMG 1322/1400 9999 SCT030 BKN050 
     TEMPO 1402/1410 -RA 
     BECMG 1407/1409 25012KT
       
TAF LZMC 131030Z 1312/1321 VRB06KT CAVOK 
     BECMG 1317/1319 15012KT
       
LZPP 131100Z 01005KT 330V040 CAVOK 05/M03 Q1018
TAF LZPP 131100Z 1312/1321 31006KT CAVOK 
     TEMPO 1312/1314 9999 FEW035 
     BECMG 1315/1317 15006KT 
     BECMG 1319/1321 16012KT
       
LZSL 131100Z VRB01KT CAVOK 02/M02 Q1017
TAF LZSL 131100Z 1312/1321 VRB02KT CAVOK 
     TEMPO 1312/1314 14005KT 9999 FEW040
       
LZTT 131100Z 26004KT 9999 FEW010 01/M04 Q1015 NOSIG
TAF LZTT 131100Z 1312/1412 11004KT 9999 FEW020 
     PROB40 
     TEMPO 1318/1322 VRB02KT 1500 BCFG SCT002 
     BECMG 1323/1401 22007KT 
     BECMG 1402/1404 26010KT SCT035 BKN060 
     TEMPO 1408/1412 25020KT 6000 -SN BKN020 OVC050
       
LZZI 131100Z VRB02KT 9999 BKN045 03/M01 Q1017
TAF LZZI 131100Z 1312/1321 VRB02KT 9999 SCT046 
     TEMPO 1312/1314 24006KT 
     BECMG 1315/1317 CAVOK